Time;durP1;ratioP1;P1;durP2;ratioP2;P2;SDS_P1;SDS_P2;PMS_P1;PMS_P2;Temp;Humidity;BMP_temperature;BMP_pressure;BME280_temperature;BME280_humidity;BME280_pressure;Samples;Min_cycle;Max_cycle;Signal;HPM_P1;HPM_P2
2023/02/22 00:00:51;;;;;;;48.72;13.40;;;6.90;99.90;;;;;;5013476;28;20401;-75
2023/02/22 00:03:24;;;;;;;37.35;11.18;;;6.80;99.90;;;;;;5014733;28;20011;-75
2023/02/22 00:05:57;;;;;;;41.17;13.13;;;6.80;99.90;;;;;;5013301;28;20022;-75
2023/02/22 00:08:29;;;;;;;35.67;12.23;;;6.80;99.90;;;;;;5015099;28;20064;-75
2023/02/22 00:10:55;;;;;;;36.03;12.95;;;6.70;99.90;;;;;;5014462;28;20426;-75
2023/02/22 00:13:21;;;;;;;35.05;12.00;;;6.70;99.90;;;;;;5013092;28;20080;-75
2023/02/22 00:15:47;;;;;;;37.15;12.27;;;6.70;99.90;;;;;;5013171;28;20021;-75
2023/02/22 00:18:16;;;;;;;34.58;12.25;;;6.70;99.90;;;;;;5014516;28;20022;-75
2023/02/22 00:20:42;;;;;;;38.10;13.20;;;6.70;99.90;;;;;;5014302;28;20505;-75
2023/02/22 00:23:17;;;;;;;38.30;12.00;;;6.80;99.90;;;;;;5014182;28;20455;-74
2023/02/22 00:25:44;;;;;;;38.53;11.80;;;6.70;99.90;;;;;;5014275;28;20461;-75
2023/02/22 00:28:09;;;;;;;38.80;12.32;;;6.70;99.90;;;;;;5014210;28;20096;-75
2023/02/22 00:30:35;;;;;;;39.72;12.35;;;6.70;99.90;;;;;;5014134;28;20480;-75
2023/02/22 00:33:01;;;;;;;37.03;12.13;;;6.70;99.90;;;;;;5014197;28;20084;-75
2023/02/22 00:35:29;;;;;;;36.65;12.38;;;6.90;99.90;;;;;;5013998;28;20148;-75
2023/02/22 00:37:58;;;;;;;34.78;10.90;;;6.90;99.90;;;;;;5014272;28;20017;-75
2023/02/22 00:40:26;;;;;;;35.63;13.75;;;6.70;99.90;;;;;;5013994;28;20093;-75
2023/02/22 00:42:52;;;;;;;37.47;12.47;;;6.70;99.90;;;;;;5014016;28;20029;-75
2023/02/22 00:45:21;;;;;;;39.08;13.23;;;6.70;99.90;;;;;;5013976;28;20272;-75
2023/02/22 00:47:47;;;;;;;37.47;13.45;;;6.70;99.90;;;;;;5013875;28;20049;-75
2023/02/22 00:50:12;;;;;;;35.25;12.52;;;6.70;99.90;;;;;;5013853;28;20036;-75
2023/02/22 00:52:38;;;;;;;33.67;11.60;;;6.70;99.90;;;;;;5013823;28;20556;-75
2023/02/22 00:55:06;;;;;;;31.42;11.52;;;6.70;99.90;;;;;;5014049;28;20045;-75
2023/02/22 00:57:35;;;;;;;36.15;12.15;;;6.60;99.90;;;;;;5014513;28;20101;-75
2023/02/22 01:00:10;;;;;;;40.00;12.85;;;6.70;99.90;;;;;;5013675;28;20022;-75
2023/02/22 01:02:40;;;;;;;34.70;13.65;;;6.70;99.90;;;;;;5013790;28;20033;-75
2023/02/22 01:05:08;;;;;;;39.92;12.35;;;6.60;99.90;;;;;;5012644;28;20485;-75
2023/02/22 01:07:34;;;;;;;33.05;12.20;;;6.60;99.90;;;;;;5013745;28;20033;-75
2023/02/22 01:10:01;;;;;;;37.30;14.43;;;6.60;99.90;;;;;;5013833;28;20033;-75
2023/02/22 01:12:28;;;;;;;35.70;11.65;;;6.60;99.90;;;;;;5012472;28;20389;-75
2023/02/22 01:14:55;;;;;;;34.72;12.40;;;6.60;99.90;;;;;;5014336;28;20018;-75
2023/02/22 01:17:22;;;;;;;37.90;11.50;;;6.60;99.90;;;;;;5012408;28;20436;-75
2023/02/22 01:19:48;;;;;;;36.20;12.00;;;6.60;99.90;;;;;;5012328;28;20026;-75
2023/02/22 01:22:13;;;;;;;39.45;13.70;;;6.50;99.90;;;;;;5013642;28;20473;-75
2023/02/22 01:24:39;;;;;;;36.63;12.40;;;6.50;99.90;;;;;;5013517;28;20022;-75
2023/02/22 01:27:04;;;;;;;40.72;13.85;;;6.50;99.90;;;;;;5012193;28;20033;-75
2023/02/22 01:29:30;;;;;;;37.50;11.80;;;6.50;99.90;;;;;;5012263;28;20014;-75
2023/02/22 01:31:56;;;;;;;37.22;12.60;;;6.50;99.90;;;;;;5013334;28;20030;-75
2023/02/22 01:34:23;;;;;;;36.88;13.35;;;6.60;99.90;;;;;;5012000;28;20535;-75
2023/02/22 01:36:49;;;;;;;33.05;12.38;;;6.60;99.90;;;;;;5012260;28;20057;-75
2023/02/22 01:39:16;;;;;;;35.25;12.55;;;6.60;99.90;;;;;;5013537;28;20057;-75
2023/02/22 01:41:45;;;;;;;36.33;12.45;;;6.50;99.90;;;;;;5013172;28;20029;-75
2023/02/22 01:44:18;;;;;;;31.95;11.95;;;6.50;99.90;;;;;;5012115;28;20400;-75
2023/02/22 01:46:44;;;;;;;36.78;14.27;;;6.50;99.90;;;;;;5013285;28;20032;-75
2023/02/22 01:49:11;;;;;;;34.08;12.75;;;6.50;99.90;;;;;;5015422;28;20026;-75
2023/02/22 01:51:40;;;;;;;31.52;13.07;;;6.40;99.90;;;;;;5017656;28;20022;-75
2023/02/22 01:54:14;;;;;;;38.85;12.70;;;6.40;99.90;;;;;;5016957;28;20026;-75
2023/02/22 01:56:49;;;;;;;31.60;11.65;;;6.40;99.90;;;;;;5017032;28;20034;-75
2023/02/22 01:59:16;;;;;;;35.58;13.23;;;6.50;99.90;;;;;;5016905;28;20026;-75
2023/02/22 02:01:42;;;;;;;34.13;11.80;;;6.40;99.90;;;;;;5016769;28;20504;-75
2023/02/22 02:04:12;;;;;;;35.70;12.55;;;6.50;99.90;;;;;;5017421;28;20032;-75
2023/02/22 02:06:38;;;;;;;36.85;13.05;;;6.40;99.90;;;;;;5017086;28;20525;-75
2023/02/22 02:09:21;;;;;;;31.45;11.13;;;6.40;99.90;;;;;;5016679;28;20022;-75
2023/02/22 02:11:48;;;;;;;33.13;11.73;;;6.30;99.90;;;;;;5015480;28;20120;-74
2023/02/22 02:14:15;;;;;;;31.38;11.15;;;6.30;99.90;;;;;;5016745;28;20030;-75
2023/02/22 02:16:48;;;;;;;34.38;12.52;;;6.30;99.90;;;;;;5016704;28;20018;-75
2023/02/22 02:19:35;;;;;;;30.08;11.18;;;6.30;99.90;;;;;;5016984;28;20049;-75
2023/02/22 02:22:27;;;;;;;30.30;11.40;;;6.30;99.90;;;;;;5016834;28;20054;-75
2023/02/22 02:25:23;;;;;;;31.85;11.50;;;6.30;99.90;;;;;;5016437;28;20026;-75
2023/02/22 02:28:10;;;;;;;35.85;12.15;;;6.20;99.90;;;;;;5015285;28;20029;-75
2023/02/22 02:30:39;;;;;;;33.00;11.27;;;6.20;99.90;;;;;;5016140;28;20032;-75
2023/02/22 02:33:46;;;;;;;26.40;10.48;;;6.20;99.90;;;;;;5015190;28;20029;-75
2023/02/22 02:36:34;;;;;;;28.65;10.77;;;6.10;99.90;;;;;;5007390;28;20049;-75
2023/02/22 02:39:24;;;;;;;31.90;11.98;;;6.10;99.90;;;;;;5014758;28;20014;-75
2023/02/22 02:41:51;;;;;;;33.00;11.63;;;6.10;99.90;;;;;;5015936;28;20049;-75
2023/02/22 02:44:26;;;;;;;32.17;11.73;;;6.00;99.90;;;;;;5016040;28;20440;-75
2023/02/22 02:47:00;;;;;;;35.63;11.75;;;6.00;99.90;;;;;;5014622;28;20518;-75
2023/02/22 02:49:58;;;;;;;30.20;10.93;;;6.00;99.90;;;;;;5016119;28;20030;-75
2023/02/22 02:52:26;;;;;;;32.97;11.65;;;6.10;99.90;;;;;;5015583;28;20113;-75
2023/02/22 02:54:53;;;;;;;33.10;11.38;;;5.90;99.90;;;;;;5015496;28;20044;-75
2023/02/22 02:57:19;;;;;;;34.92;11.65;;;5.90;99.90;;;;;;5015859;28;20137;-75
2023/02/22 02:59:45;;;;;;;31.13;10.52;;;5.80;99.90;;;;;;5013274;28;20037;-75
2023/02/22 03:02:13;;;;;;;33.80;11.50;;;5.80;99.90;;;;;;5015574;28;20018;-75
2023/02/22 03:05:25;;;;;;;32.97;11.35;;;5.80;99.90;;;;;;5015822;28;20057;-75
2023/02/22 03:08:03;;;;;;;31.73;10.43;;;5.80;99.90;;;;;;5014506;28;20037;-75
2023/02/22 03:10:57;;;;;;;31.48;10.35;;;5.80;99.90;;;;;;5014388;28;20030;-75
2023/02/22 03:13:25;;;;;;;30.40;10.70;;;5.70;99.90;;;;;;5014071;28;20026;-75
2023/02/22 03:15:53;;;;;;;33.58;10.27;;;5.70;99.90;;;;;;5014148;28;20030;-75
2023/02/22 03:18:37;;;;;;;34.67;10.18;;;5.70;99.90;;;;;;5015266;28;20497;-75
2023/02/22 03:21:19;;;;;;;35.88;11.68;;;5.70;99.90;;;;;;5015315;28;20018;-75
2023/02/22 03:23:59;;;;;;;34.42;11.40;;;5.70;99.90;;;;;;5014232;28;20036;-75
2023/02/22 03:26:39;;;;;;;28.83;10.45;;;5.70;99.90;;;;;;5015265;28;20026;-75
2023/02/22 03:29:08;;;;;;;32.78;11.77;;;5.70;99.90;;;;;;5015614;28;20033;-75
2023/02/22 03:31:44;;;;;;;32.00;11.32;;;5.70;99.90;;;;;;5013720;28;20026;-75
2023/02/22 03:34:24;;;;;;;38.28;11.60;;;5.60;99.90;;;;;;5015016;28;20034;-75
2023/02/22 03:36:58;;;;;;;33.35;11.40;;;5.60;99.90;;;;;;5013800;28;20022;-75
2023/02/22 03:39:29;;;;;;;38.33;12.05;;;5.60;99.90;;;;;;5014935;28;20061;-75
2023/02/22 03:41:59;;;;;;;35.35;11.35;;;5.60;99.90;;;;;;5013823;28;20032;-75
2023/02/22 03:44:28;;;;;;;38.72;12.50;;;5.50;99.90;;;;;;5013588;28;20022;-75
2023/02/22 03:46:55;;;;;;;33.50;11.27;;;5.50;99.90;;;;;;5014669;28;20032;-75
2023/02/22 03:49:38;;;;;;;36.65;11.45;;;5.50;99.90;;;;;;5014831;28;20077;-75
2023/02/22 03:52:05;;;;;;;34.63;11.00;;;5.50;99.90;;;;;;5014615;28;20108;-75
2023/02/22 03:54:33;;;;;;;37.30;13.10;;;5.50;99.90;;;;;;5014712;28;20041;-75
2023/02/22 03:57:25;;;;;;;37.27;13.27;;;5.50;99.90;;;;;;5013459;28;20030;-75
2023/02/22 03:59:51;;;;;;;36.63;11.43;;;5.50;99.90;;;;;;5014610;28;20109;-75
2023/02/22 04:02:17;;;;;;;34.00;11.75;;;5.50;99.90;;;;;;5014569;28;20065;-75
2023/02/22 04:04:44;;;;;;;34.72;11.88;;;5.50;99.90;;;;;;5014790;28;20029;-75
2023/02/22 04:07:10;;;;;;;33.85;11.00;;;5.50;99.90;;;;;;5013108;28;20026;-75
2023/02/22 04:09:36;;;;;;;37.75;12.48;;;5.50;99.90;;;;;;5013267;28;20109;-75
2023/02/22 04:12:02;;;;;;;40.88;13.55;;;5.50;99.90;;;;;;5012782;28;20030;-75
2023/02/22 04:14:28;;;;;;;35.13;13.05;;;5.40;99.90;;;;;;5014907;28;20018;-75
2023/02/22 04:16:54;;;;;;;39.97;12.98;;;5.40;99.90;;;;;;5014470;28;20029;-75
2023/02/22 04:19:20;;;;;;;37.83;13.13;;;5.40;99.90;;;;;;5014351;28;20530;-75
2023/02/22 04:21:46;;;;;;;33.67;11.25;;;5.40;99.90;;;;;;5012937;28;20018;-75
2023/02/22 04:24:12;;;;;;;44.22;14.38;;;5.40;99.90;;;;;;5012945;28;20061;-75
2023/02/22 04:26:37;;;;;;;44.55;14.57;;;5.40;99.90;;;;;;5012921;28;20052;-75
2023/02/22 04:29:03;;;;;;;41.42;13.00;;;5.40;99.90;;;;;;5014643;28;20026;-75
2023/02/22 04:31:29;;;;;;;39.97;13.90;;;5.40;99.90;;;;;;5012746;28;20053;-74
2023/02/22 04:33:55;;;;;;;43.00;14.25;;;5.30;99.90;;;;;;5013908;28;20034;-75
2023/02/22 04:36:21;;;;;;;42.05;13.75;;;5.40;99.90;;;;;;5012725;28;20123;-74
2023/02/22 04:38:47;;;;;;;40.33;14.27;;;5.30;99.90;;;;;;5014056;28;20388;-74
2023/02/22 04:41:13;;;;;;;43.00;12.73;;;5.30;99.90;;;;;;5013862;28;20485;-74
2023/02/22 04:43:38;;;;;;;43.25;13.98;;;5.30;99.90;;;;;;5014398;28;20025;-74
2023/02/22 04:46:04;;;;;;;43.65;13.93;;;5.30;99.90;;;;;;5013915;28;20026;-74
2023/02/22 04:48:30;;;;;;;44.78;13.68;;;5.30;99.90;;;;;;5013730;28;20106;-74
2023/02/22 04:50:55;;;;;;;39.63;13.65;;;5.30;99.90;;;;;;5013925;28;20528;-74
2023/02/22 04:53:21;;;;;;;47.95;16.20;;;5.30;99.90;;;;;;5012597;28;20022;-74
2023/02/22 04:55:47;;;;;;;53.65;14.38;;;5.30;99.90;;;;;;5012890;28;20445;-74
2023/02/22 04:58:12;;;;;;;44.70;11.88;;;5.30;99.90;;;;;;5012459;28;20026;-74
2023/02/22 05:00:38;;;;;;;39.40;13.65;;;5.20;99.90;;;;;;5012374;28;20025;-74
2023/02/22 05:03:03;;;;;;;48.63;14.93;;;5.20;99.90;;;;;;5013747;28;20403;-74
2023/02/22 05:05:29;;;;;;;43.10;12.50;;;5.20;99.90;;;;;;5013660;28;20033;-74
2023/02/22 05:07:55;;;;;;;39.88;13.07;;;5.20;99.90;;;;;;5012398;28;20026;-74
2023/02/22 05:10:23;;;;;;;42.78;13.90;;;5.20;99.90;;;;;;5012419;28;20484;-74
2023/02/22 05:12:50;;;;;;;41.60;13.73;;;5.20;99.90;;;;;;5012224;28;20097;-74
2023/02/22 05:15:18;;;;;;;43.30;14.40;;;5.20;99.90;;;;;;5012198;28;20026;-74
2023/02/22 05:17:44;;;;;;;42.28;13.50;;;5.20;99.90;;;;;;5012338;28;20022;-74
2023/02/22 05:20:26;;;;;;;41.03;14.55;;;5.20;99.90;;;;;;5013508;28;20089;-74
2023/02/22 05:22:54;;;;;;;45.22;14.00;;;5.20;99.90;;;;;;5014931;28;20444;-74
2023/02/22 05:25:19;;;;;;;44.60;14.00;;;5.20;99.90;;;;;;5016134;28;20129;-74
2023/02/22 05:27:56;;;;;;;38.15;13.10;;;5.20;99.90;;;;;;5017516;28;20465;-73
2023/02/22 05:30:24;;;;;;;44.45;13.63;;;5.20;99.90;;;;;;5016220;28;20037;-74
2023/02/22 05:32:50;;;;;;;45.00;14.82;;;5.20;99.90;;;;;;5017912;28;20028;-74
2023/02/22 05:35:17;;;;;;;40.72;14.45;;;5.20;99.90;;;;;;5017359;28;20481;-75
2023/02/22 05:37:43;;;;;;;41.83;13.32;;;5.20;99.90;;;;;;5017769;28;20058;-75
2023/02/22 05:40:09;;;;;;;42.85;13.80;;;5.20;99.90;;;;;;5016001;28;20073;-75
2023/02/22 05:42:35;;;;;;;43.05;13.38;;;5.20;99.90;;;;;;5017127;28;20108;-75
2023/02/22 05:45:01;;;;;;;53.10;15.65;;;5.20;99.90;;;;;;5017202;28;20203;-74
2023/02/22 05:47:26;;;;;;;50.15;15.20;;;5.20;99.90;;;;;;5015823;28;20026;-74
2023/02/22 05:49:52;;;;;;;48.95;14.65;;;5.20;99.90;;;;;;5015783;28;20491;-74
2023/02/22 05:52:18;;;;;;;46.13;15.68;;;5.20;99.90;;;;;;5015659;28;20030;-74
2023/02/22 05:54:43;;;;;;;52.33;15.43;;;5.20;99.90;;;;;;5015471;28;20025;-74
2023/02/22 05:57:09;;;;;;;45.00;13.45;;;5.20;99.90;;;;;;5015634;28;20033;-74
2023/02/22 05:59:35;;;;;;;44.58;13.48;;;5.20;99.90;;;;;;5015561;28;20501;-74
2023/02/22 06:02:00;;;;;;;50.88;14.90;;;5.20;99.90;;;;;;5016625;28;20022;-74
2023/02/22 06:04:26;;;;;;;46.38;14.20;;;5.40;99.90;;;;;;5016709;28;20109;-74
2023/02/22 06:06:52;;;;;;;44.53;13.18;;;5.20;99.90;;;;;;5016795;28;20030;-74
2023/02/22 06:09:18;;;;;;;53.53;13.48;;;5.20;99.90;;;;;;5015463;28;20020;-74
2023/02/22 06:11:43;;;;;;;54.13;14.00;;;5.20;99.90;;;;;;5015341;28;20025;-75
2023/02/22 06:14:09;;;;;;;64.95;14.98;;;5.20;99.90;;;;;;5015266;28;20022;-74
2023/02/22 06:16:34;;;;;;;42.95;12.45;;;5.20;99.90;;;;;;5015382;28;20029;-74
2023/02/22 06:19:00;;;;;;;52.65;15.13;;;5.20;99.90;;;;;;5016679;28;20021;-74
2023/02/22 06:21:26;;;;;;;52.15;14.25;;;5.20;99.90;;;;;;5015194;28;20018;-74
2023/02/22 06:23:52;;;;;;;48.70;13.32;;;5.20;99.90;;;;;;5015208;28;20034;-74
2023/02/22 06:26:18;;;;;;;53.58;14.30;;;5.30;99.90;;;;;;5016989;28;20059;-74
2023/02/22 06:28:45;;;;;;;55.33;14.95;;;5.20;99.90;;;;;;5015758;28;20381;-75
2023/02/22 06:31:11;;;;;;;60.43;13.20;;;5.20;99.90;;;;;;5016566;28;20164;-74
2023/02/22 06:33:37;;;;;;;48.55;12.95;;;5.20;99.90;;;;;;5016525;28;20351;-74
2023/02/22 06:36:04;;;;;;;46.38;13.55;;;5.20;99.90;;;;;;5016863;28;20052;-74
2023/02/22 06:38:29;;;;;;;50.03;14.80;;;5.20;99.90;;;;;;5015691;28;20013;-74
2023/02/22 06:40:55;;;;;;;49.28;13.77;;;5.20;99.90;;;;;;5016739;28;20061;-74
2023/02/22 06:43:23;;;;;;;51.50;14.68;;;5.20;99.90;;;;;;5015788;28;20026;-74
2023/02/22 06:45:49;;;;;;;55.08;14.27;;;5.20;99.90;;;;;;5016917;28;20473;-74
2023/02/22 06:48:15;;;;;;;54.70;14.50;;;5.20;99.90;;;;;;5015613;28;20439;-74
2023/02/22 06:50:41;;;;;;;56.30;13.95;;;5.20;99.90;;;;;;5016872;28;20026;-75
2023/02/22 06:53:06;;;;;;;60.08;15.07;;;5.20;99.90;;;;;;5015547;28;20026;-75
2023/02/22 06:55:33;;;;;;;53.30;13.35;;;5.20;99.90;;;;;;5042335;22;20042;-73
2023/02/22 06:58:00;;;;;;;66.65;13.85;;;5.20;99.90;;;;;;5015835;28;20085;-73
2023/02/22 07:00:28;;;;;;;60.63;14.40;;;5.20;99.90;;;;;;5015713;28;20025;-73
2023/02/22 07:02:53;;;;;;;50.53;13.63;;;5.20;99.90;;;;;;5016729;28;20038;-73
2023/02/22 07:05:21;;;;;;;41.95;12.82;;;5.20;99.90;;;;;;5015031;28;20404;-73
2023/02/22 07:07:49;;;;;;;45.53;12.52;;;5.20;99.90;;;;;;5016455;28;20068;-73
2023/02/22 07:10:20;;;;;;;45.13;12.60;;;5.20;99.90;;;;;;5015273;28;20128;-73
2023/02/22 07:12:45;;;;;;;44.05;12.13;;;5.20;99.90;;;;;;5015030;28;20096;-73
2023/02/22 07:15:12;;;;;;;39.60;12.70;;;5.20;99.90;;;;;;5015513;28;20022;-73
2023/02/22 07:17:40;;;;;;;41.75;13.38;;;5.30;99.90;;;;;;5016124;28;20026;-73
2023/02/22 07:20:10;;;;;;;43.08;12.00;;;5.20;99.90;;;;;;5015245;28;20022;-73
2023/02/22 07:22:37;;;;;;;49.42;14.98;;;5.20;99.90;;;;;;5016664;28;20033;-73
2023/02/22 07:25:03;;;;;;;44.45;11.73;;;5.30;99.90;;;;;;5016171;28;20028;-73
2023/02/22 07:27:29;;;;;;;41.72;13.05;;;5.20;99.90;;;;;;5014221;28;20026;-73
2023/02/22 07:29:54;;;;;;;46.50;12.68;;;5.30;99.90;;;;;;5014117;28;20369;-73
2023/02/22 07:32:20;;;;;;;42.05;12.10;;;5.30;99.90;;;;;;5015239;28;20393;-73
2023/02/22 07:34:45;;;;;;;46.22;13.95;;;5.30;99.90;;;;;;5015061;28;20028;-73
2023/02/22 07:37:11;;;;;;;46.20;12.93;;;5.30;99.90;;;;;;5015135;28;20469;-73
2023/02/22 07:39:36;;;;;;;48.63;15.20;;;5.30;99.90;;;;;;5015140;28;20472;-73
2023/02/22 07:42:03;;;;;;;45.80;14.95;;;5.40;99.90;;;;;;5014925;28;20481;-73
2023/02/22 07:44:29;;;;;;;42.03;13.40;;;5.40;99.90;;;;;;5014888;28;20030;-73
2023/02/22 07:46:54;;;;;;;41.55;13.40;;;5.40;99.90;;;;;;5014256;28;20055;-73
2023/02/22 07:49:20;;;;;;;44.38;13.68;;;5.40;99.90;;;;;;5013563;28;20476;-73
2023/02/22 07:51:45;;;;;;;42.47;13.60;;;5.40;99.90;;;;;;5014722;28;20076;-73
2023/02/22 07:54:11;;;;;;;38.67;12.32;;;5.40;99.90;;;;;;5013270;28;20053;-73
2023/02/22 07:56:42;;;;;;;43.13;12.98;;;5.50;99.90;;;;;;5014496;28;20037;-73
2023/02/22 07:59:08;;;;;;;44.83;13.02;;;5.50;99.90;;;;;;5013635;28;20448;-73
2023/02/22 08:01:33;;;;;;;47.00;13.65;;;5.50;99.90;;;;;;5013387;28;20014;-73
2023/02/22 08:03:59;;;;;;;47.88;15.43;;;5.50;99.90;;;;;;5013520;28;20021;-73
2023/02/22 08:06:24;;;;;;;46.60;14.10;;;5.50;99.90;;;;;;5014659;28;20028;-73
2023/02/22 08:08:50;;;;;;;43.63;13.10;;;5.50;99.90;;;;;;5014654;28;20022;-73
2023/02/22 08:11:16;;;;;;;45.38;14.40;;;5.50;99.90;;;;;;5013161;28;20156;-73
2023/02/22 08:13:41;;;;;;;42.13;13.30;;;5.50;99.90;;;;;;5014470;28;20109;-73
2023/02/22 08:16:07;;;;;;;38.45;12.55;;;5.60;99.90;;;;;;5013034;28;20025;-73
2023/02/22 08:18:32;;;;;;;41.70;12.48;;;5.60;99.90;;;;;;5013238;28;20018;-73
2023/02/22 08:20:58;;;;;;;40.78;12.55;;;5.60;99.90;;;;;;5014844;28;20045;-73
2023/02/22 08:23:25;;;;;;;40.45;11.55;;;5.60;99.90;;;;;;5013317;28;20469;-73
2023/02/22 08:25:51;;;;;;;35.28;12.13;;;5.70;99.90;;;;;;5013015;28;20028;-73
2023/02/22 08:28:21;;;;;;;35.20;12.10;;;5.80;99.90;;;;;;5013020;28;20481;-73
2023/02/22 08:30:47;;;;;;;36.20;12.02;;;5.80;99.90;;;;;;5014018;28;20018;-73
2023/02/22 08:33:15;;;;;;;34.30;11.65;;;5.90;99.90;;;;;;5012881;28;20076;-73
2023/02/22 08:35:41;;;;;;;35.90;10.75;;;7.00;99.90;;;;;;5012969;28;20028;-73
2023/02/22 08:38:14;;;;;;;30.40;10.70;;;5.90;99.90;;;;;;5013063;28;20053;-73
2023/02/22 08:40:39;;;;;;;28.20;9.85;;;6.00;99.90;;;;;;5014404;28;20030;-73
2023/02/22 08:43:05;;;;;;;34.85;10.65;;;6.00;99.90;;;;;;5014056;28;20030;-73
2023/02/22 08:45:31;;;;;;;27.15;10.55;;;6.00;99.90;;;;;;5014533;28;20069;-73
2023/02/22 08:47:59;;;;;;;33.30;10.45;;;6.00;99.90;;;;;;5012686;28;20028;-73
2023/02/22 08:50:28;;;;;;;31.42;10.68;;;6.00;99.90;;;;;;5012584;28;20443;-73
2023/02/22 08:53:00;;;;;;;31.27;10.80;;;6.00;99.90;;;;;;5012523;28;20113;-73
2023/02/22 08:55:30;;;;;;;26.80;10.65;;;6.00;99.90;;;;;;5012446;28;20029;-73
2023/02/22 08:57:55;;;;;;;31.20;10.70;;;6.00;99.90;;;;;;5012576;28;20121;-73
2023/02/22 09:00:24;;;;;;;27.70;10.63;;;6.10;99.90;;;;;;5013687;28;20096;-73
2023/02/22 09:02:50;;;;;;;;;;;6.10;99.90;;;;;;5013103;28;20087;-73
2023/02/22 09:05:16;;;;;;;29.10;9.25;;;6.20;99.90;;;;;;5013798;28;19909;-73
2023/02/22 09:07:42;;;;;;;34.40;11.20;;;6.30;99.90;;;;;;5012366;28;20026;-74
2023/02/22 09:10:18;;;;;;;35.00;11.32;;;6.30;99.90;;;;;;5013631;28;20030;-73
2023/02/22 09:12:43;;;;;;;34.70;10.88;;;6.40;99.90;;;;;;5013526;28;20080;-73
2023/02/22 09:15:10;;;;;;;33.55;11.27;;;6.40;99.90;;;;;;5013529;28;20022;-73
2023/02/22 09:17:36;;;;;;;37.33;12.73;;;6.40;99.90;;;;;;5013620;28;20046;-73
2023/02/22 09:20:05;;;;;;;33.17;12.30;;;6.50;99.90;;;;;;5012224;28;20036;-73
2023/02/22 09:22:31;;;;;;;29.42;11.60;;;6.60;99.90;;;;;;5013508;28;20397;-73
2023/02/22 09:24:57;;;;;;;33.70;10.60;;;6.70;99.90;;;;;;5012292;28;20034;-73
2023/02/22 09:27:22;;;;;;;35.67;11.95;;;6.80;99.90;;;;;;5013472;28;20026;-73
2023/02/22 09:29:48;;;;;;;31.38;10.90;;;6.80;99.90;;;;;;5013788;28;20481;-73
2023/02/22 09:32:16;;;;;;;27.35;9.93;;;6.90;99.90;;;;;;5013952;28;20030;-73
2023/02/22 09:34:44;;;;;;;27.88;10.63;;;7.00;99.90;;;;;;5013330;28;20508;-73
2023/02/22 09:37:11;;;;;;;33.50;10.77;;;7.00;99.90;;;;;;5012276;28;20084;-73
2023/02/22 09:39:40;;;;;;;31.50;11.45;;;7.10;99.90;;;;;;5013467;28;20022;-73
2023/02/22 09:42:26;;;;;;;37.05;12.13;;;7.60;99.90;;;;;;5012366;28;20014;-73
2023/02/22 09:45:15;;;;;;;34.08;11.43;;;7.20;99.90;;;;;;5013441;28;20022;-73
2023/02/22 09:47:48;;;;;;;33.10;11.50;;;7.40;99.90;;;;;;5013629;28;20400;-73
2023/02/22 09:50:17;;;;;;;30.63;11.48;;;7.50;99.90;;;;;;5013325;28;20532;-73
2023/02/22 09:53:20;;;;;;;39.85;12.57;;;7.50;99.90;;;;;;5012070;28;20026;-73
2023/02/22 09:55:50;;;;;;;28.60;10.40;;;7.60;99.90;;;;;;5001108;28;20057;-73
2023/02/22 09:58:18;;;;;;;32.30;11.90;;;7.70;99.90;;;;;;5013285;28;20037;-73
2023/02/22 10:00:47;;;;;;;28.20;10.50;;;7.90;99.90;;;;;;5013725;28;20033;-73
2023/02/22 10:03:25;;;;;;;26.42;9.80;;;7.90;99.90;;;;;;5013351;28;20551;-73
2023/02/22 10:05:58;;;;;;;29.20;10.63;;;8.00;99.90;;;;;;5013308;28;20030;-73
2023/02/22 10:08:28;;;;;;;25.10;10.02;;;8.10;99.90;;;;;;5012697;28;20489;-73
2023/02/22 10:11:04;;;;;;;29.58;11.10;;;8.20;99.90;;;;;;5016664;28;20156;-73
2023/02/22 10:13:50;;;;;;;32.00;11.18;;;8.40;99.90;;;;;;5015995;28;20021;-73
2023/02/22 10:16:26;;;;;;;31.08;11.77;;;8.50;99.90;;;;;;5017311;28;20017;-73
2023/02/22 10:19:15;;;;;;;32.65;11.35;;;8.60;99.90;;;;;;5017449;28;20489;-73
2023/02/22 10:21:47;;;;;;;28.80;10.80;;;8.60;99.90;;;;;;5015973;28;20014;-73
2023/02/22 10:24:37;;;;;;;31.40;12.38;;;8.60;99.90;;;;;;5015873;28;20025;-73
2023/02/22 10:27:13;;;;;;;30.35;10.85;;;8.60;99.90;;;;;;5017070;28;20018;-73
2023/02/22 10:29:40;;;;;;;29.40;11.05;;;8.70;99.90;;;;;;5015874;28;20057;-73
2023/02/22 10:32:13;;;;;;;30.65;10.85;;;8.70;99.90;;;;;;5015909;28;20034;-73
2023/02/22 10:34:45;;;;;;;30.50;10.82;;;8.70;99.90;;;;;;5017303;28;20112;-73
2023/02/22 10:37:31;;;;;;;30.02;11.27;;;8.70;99.90;;;;;;5017372;28;20022;-73
2023/02/22 10:40:17;;;;;;;28.48;10.48;;;8.70;99.90;;;;;;5016288;28;20022;-73
2023/02/22 10:42:43;;;;;;;31.48;12.30;;;8.70;99.90;;;;;;5015780;28;20022;-73
2023/02/22 10:45:24;;;;;;;27.83;9.93;;;8.70;99.90;;;;;;5017331;28;20503;-73
2023/02/22 10:47:53;;;;;;;33.92;11.48;;;8.70;99.90;;;;;;5015736;28;20037;-73
2023/02/22 10:50:20;;;;;;;28.52;10.18;;;8.60;99.90;;;;;;5017010;28;20030;-73
2023/02/22 10:52:46;;;;;;;28.13;10.55;;;8.70;99.90;;;;;;5016774;28;20018;-73
2023/02/22 10:55:14;;;;;;;30.05;12.02;;;8.70;99.90;;;;;;5016498;28;20540;-73
2023/02/22 10:57:43;;;;;;;31.95;10.98;;;8.70;99.90;;;;;;5016738;28;20035;-73
2023/02/22 11:00:19;;;;;;;30.90;10.85;;;8.80;99.90;;;;;;5014900;28;20018;-73
2023/02/22 11:03:00;;;;;;;29.65;10.93;;;8.80;99.90;;;;;;5014504;28;20030;-73
2023/02/22 11:05:35;;;;;;;32.83;10.60;;;8.90;99.90;;;;;;5014808;28;20025;-73
2023/02/22 11:08:20;;;;;;;29.67;10.43;;;9.00;99.90;;;;;;5016240;28;20409;-73
2023/02/22 11:10:55;;;;;;;31.00;11.77;;;9.10;99.90;;;;;;5015174;28;20026;-73
2023/02/22 11:13:32;;;;;;;34.78;10.98;;;9.10;99.90;;;;;;5014857;28;20022;-73
2023/02/22 11:16:24;;;;;;;31.60;10.65;;;9.10;99.90;;;;;;5014420;28;20022;-73
2023/02/22 11:19:05;;;;;;;30.20;11.45;;;9.00;99.90;;;;;;5015578;28;20026;-73
2023/02/22 11:21:31;;;;;;;30.80;11.38;;;9.30;99.90;;;;;;5013486;28;20068;-73
2023/02/22 11:24:07;;;;;;;35.58;11.98;;;9.40;99.90;;;;;;5014092;28;20022;-73
2023/02/22 11:26:44;;;;;;;28.52;10.73;;;9.50;99.90;;;;;;5014067;28;20547;-73
2023/02/22 11:29:24;;;;;;;28.58;10.85;;;9.40;99.90;;;;;;5015266;28;20049;-73
2023/02/22 11:31:50;;;;;;;30.70;11.55;;;9.50;99.90;;;;;;5014031;28;20029;-73
2023/02/22 11:34:30;;;;;;;31.92;11.57;;;9.50;99.90;;;;;;5015278;28;20117;-73
2023/02/22 11:36:56;;;;;;;34.00;12.57;;;9.50;99.90;;;;;;5015447;28;20477;-73
2023/02/22 11:39:33;;;;;;;28.50;11.20;;;9.40;99.90;;;;;;5014116;28;20155;-73
2023/02/22 11:42:21;;;;;;;33.10;10.70;;;9.40;99.90;;;;;;5013924;28;20022;-73
2023/02/22 11:44:47;;;;;;;28.40;10.30;;;9.40;99.90;;;;;;5015782;28;20156;-73
2023/02/22 11:47:13;;;;;;;27.17;10.13;;;9.40;99.90;;;;;;5014031;28;20076;-73
2023/02/22 11:49:43;;;;;;;29.58;10.93;;;9.40;99.90;;;;;;5013651;28;20018;-73
2023/02/22 11:52:29;;;;;;;28.13;10.30;;;9.30;99.90;;;;;;5014813;28;20543;-73
2023/02/22 11:55:26;;;;;;;26.50;11.15;;;9.40;99.90;;;;;;5013334;28;20033;-73
2023/02/22 11:58:25;;;;;;;32.58;10.52;;;9.40;99.90;;;;;;5010460;28;20041;-73
2023/02/22 12:01:17;;;;;;;34.00;11.65;;;9.40;99.90;;;;;;5003693;28;20037;-73
2023/02/22 12:04:07;;;;;;;27.77;9.52;;;9.50;99.90;;;;;;5010435;28;20397;-73
2023/02/22 12:06:50;;;;;;;29.88;10.40;;;9.60;99.90;;;;;;5014592;28;20034;-73
2023/02/22 12:09:32;;;;;;;30.00;11.90;;;9.60;99.90;;;;;;5014912;28;20075;-73
2023/02/22 12:12:15;;;;;;;30.80;10.88;;;9.70;99.90;;;;;;5013233;28;20072;-73
2023/02/22 12:14:46;;;;;;;26.15;9.90;;;9.80;99.90;;;;;;5014401;28;20033;-73
2023/02/22 12:17:26;;;;;;;25.40;10.00;;;10.00;99.90;;;;;;5015131;28;20100;-73
2023/02/22 12:19:59;;;;;;;25.52;10.02;;;10.10;99.90;;;;;;5013209;28;20022;-73
2023/02/22 12:22:35;;;;;;;24.08;8.55;;;10.10;99.90;;;;;;5013360;28;20511;-73
2023/02/22 12:25:15;;;;;;;24.20;10.02;;;10.10;99.90;;;;;;5012888;28;20025;-73
2023/02/22 12:27:59;;;;;;;25.60;9.50;;;10.20;99.90;;;;;;5014049;28;20065;-73
2023/02/22 12:30:37;;;;;;;28.77;9.15;;;10.30;99.90;;;;;;5014081;28;20076;-73
2023/02/22 12:33:12;;;;;;;24.67;9.38;;;10.40;99.90;;;;;;5013824;28;20406;-73
2023/02/22 12:35:53;;;;;;;20.73;8.60;;;10.50;99.90;;;;;;5014515;28;20029;-73
2023/02/22 12:38:36;;;;;;;22.67;9.88;;;11.00;99.90;;;;;;5012755;28;20017;-73
2023/02/22 12:41:16;;;;;;;23.02;9.13;;;10.60;99.90;;;;;;5014515;28;20465;-73
2023/02/22 12:43:50;;;;;;;24.55;8.25;;;10.60;99.90;;;;;;5013950;28;20029;-73
2023/02/22 12:46:22;;;;;;;22.98;9.30;;;10.60;99.90;;;;;;5013779;28;20022;-73
2023/02/22 12:48:59;;;;;;;51.10;11.15;;;10.70;99.90;;;;;;5013885;28;20022;-73
2023/02/22 12:51:41;;;;;;;23.90;9.43;;;10.80;99.90;;;;;;5013657;28;20032;-73
2023/02/22 12:54:15;;;;;;;25.30;10.05;;;10.80;99.90;;;;;;5013458;28;20408;-73
2023/02/22 12:56:43;;;;;;;21.38;8.40;;;10.80;99.90;;;;;;5013512;28;20057;-73